KDTN/DTN METAR and TAF weather

Enter ICAO airport designator
Station Type Date Time Source
KDTN METAR 2019/02/21 10:53 UTC NOAA

KDTN 211053Z AUTO 00000KT 10SM CLR 05/03 A3004 RMK AO2 SLP170 T00500033


Station Type Date Time Source
KDTN Decoded METAR 2019/02/21 10:53 UTC NOAA

SHREVEPORT DOWNTOWN AIRPORT, LA, United States (KDTN) 32-32N 093-45W 53M
Feb 21, 2019 - 05:53 AM EST / 2019.02.21 1053 UTC
Wind: Calm:0
Visibility: 10 mile(s):0
Sky conditions: clear
Temperature: 41.0 F (5.0 C)
Dew Point: 37.9 F (3.3 C)
Relative Humidity: 88%
Pressure (altimeter): 30.04 in. Hg (1017 hPa)
ob: KDTN 211053Z AUTO 00000KT 10SM CLR 05/03 A3004 RMK AO2 SLP170 T00500033
cycle: 11

Station Type Date Time Source
KDTN TAF UTC NOAA

Error!


Example: see airport list